Time;durP1;ratioP1;P1;durP2;ratioP2;P2;SDS_P1;SDS_P2;PMS_P1;PMS_P2;Temp;Humidity;BMP_temperature;BMP_pressure;BME280_temperature;BME280_humidity;BME280_pressure;Samples;Min_cycle;Max_cycle;Signal;HPM_P1;HPM_P2
2023/07/26 00:00:28;;;;;;;3.63;3.03;;;11.70;99.90;;;;;;5041438;28;20233;-78
2023/07/26 00:02:54;;;;;;;5.63;3.50;;;11.70;99.90;;;;;;5023983;28;20218;-78
2023/07/26 00:05:19;;;;;;;4.80;3.13;;;11.60;99.90;;;;;;5041451;28;20207;-78
2023/07/26 00:07:45;;;;;;;5.15;3.30;;;11.60;99.90;;;;;;5025281;28;20198;-79
2023/07/26 00:10:11;;;;;;;6.10;3.38;;;11.60;99.90;;;;;;5044875;28;20647;-78
2023/07/26 00:12:37;;;;;;;5.05;3.40;;;11.60;99.90;;;;;;5024208;28;20683;-79
2023/07/26 00:15:03;;;;;;;6.97;3.50;;;11.60;99.90;;;;;;5023640;28;20656;-79
2023/07/26 00:17:29;;;;;;;3.72;3.42;;;11.60;99.90;;;;;;5023370;28;20230;-78
2023/07/26 00:19:54;;;;;;;3.50;3.20;;;11.50;99.90;;;;;;5023489;28;20171;-79
2023/07/26 00:22:20;;;;;;;3.88;3.45;;;11.50;99.90;;;;;;5041789;28;20574;-78
2023/07/26 00:24:46;;;;;;;3.97;3.28;;;11.60;99.90;;;;;;5023590;28;20645;-79
2023/07/26 00:27:14;;;;;;;6.30;3.08;;;11.70;99.90;;;;;;5023882;28;20273;-78
2023/07/26 00:29:39;;;;;;;6.72;3.22;;;11.80;99.90;;;;;;5023735;28;20189;-78
2023/07/26 00:32:05;;;;;;;5.10;3.65;;;11.90;99.90;;;;;;5021688;28;20199;-79
2023/07/26 00:34:31;;;;;;;6.53;3.30;;;12.10;99.90;;;;;;5020885;28;20205;-79
2023/07/26 00:37:00;;;;;;;6.43;3.28;;;12.00;99.90;;;;;;5021349;28;20203;-78
2023/07/26 00:39:25;;;;;;;5.22;3.40;;;11.90;99.90;;;;;;5020687;28;20602;-78
2023/07/26 00:41:51;;;;;;;5.85;3.58;;;11.80;99.90;;;;;;5020788;28;20175;-78
2023/07/26 00:44:17;;;;;;;3.40;3.10;;;11.80;99.90;;;;;;5038897;28;20251;-78
2023/07/26 00:46:43;;;;;;;3.70;3.40;;;11.70;99.90;;;;;;5020740;28;20674;-79
2023/07/26 00:49:09;;;;;;;5.47;3.53;;;11.60;99.90;;;;;;5020942;28;20249;-78
2023/07/26 00:51:37;;;;;;;4.07;3.67;;;11.50;99.90;;;;;;5021029;28;20659;-78
2023/07/26 00:54:04;;;;;;;4.87;3.60;;;11.60;99.90;;;;;;5021217;28;20262;-78
2023/07/26 00:56:29;;;;;;;3.63;3.30;;;11.50;99.90;;;;;;5039079;28;20720;-78
2023/07/26 00:58:55;;;;;;;4.85;3.47;;;11.50;99.90;;;;;;5039260;28;20203;-79
2023/07/26 01:01:21;;;;;;;6.63;3.70;;;11.60;99.90;;;;;;5020957;28;20693;-79
2023/07/26 01:03:47;;;;;;;4.40;3.63;;;11.60;99.90;;;;;;5038760;28;20210;-78
2023/07/26 01:06:34;;;;;;;4.43;3.60;;;11.60;99.90;;;;;;5038501;28;20234;-78
2023/07/26 01:09:19;;;;;;;5.75;3.17;;;11.50;99.90;;;;;;5020874;28;20171;-78
2023/07/26 01:12:04;;;;;;;4.05;3.50;;;11.40;99.90;;;;;;5037451;28;20164;-79
2023/07/26 01:15:05;;;;;;;5.50;3.95;;;11.30;99.90;;;;;;5020061;28;20682;-78
2023/07/26 01:17:31;;;;;;;5.93;3.40;;;11.30;99.90;;;;;;5007046;28;20229;-79
2023/07/26 01:19:57;;;;;;;5.60;3.80;;;11.30;99.90;;;;;;5018899;28;20179;-78
2023/07/26 01:22:23;;;;;;;4.10;3.22;;;11.40;99.90;;;;;;5037099;28;20293;-79
2023/07/26 01:24:48;;;;;;;7.75;3.75;;;11.50;99.90;;;;;;5018923;28;20179;-78
2023/07/26 01:27:14;;;;;;;7.43;3.35;;;11.50;99.90;;;;;;5018868;28;20175;-78
2023/07/26 01:29:40;;;;;;;3.70;3.40;;;11.60;99.90;;;;;;5019117;28;20667;-78
2023/07/26 01:32:12;;;;;;;6.53;3.90;;;11.60;99.90;;;;;;5019368;28;20634;-78
2023/07/26 01:34:38;;;;;;;6.15;3.45;;;11.60;99.90;;;;;;5019321;28;20175;-79
2023/07/26 01:37:05;;;;;;;3.72;3.40;;;11.50;99.90;;;;;;5019681;28;20304;-78
2023/07/26 01:39:31;;;;;;;3.70;3.40;;;11.50;99.90;;;;;;5019053;28;20179;-79
2023/07/26 01:41:58;;;;;;;7.10;3.70;;;11.50;99.90;;;;;;5019507;28;20203;-79
2023/07/26 01:44:23;;;;;;;4.32;3.70;;;11.40;99.90;;;;;;5018559;28;20659;-78
2023/07/26 01:46:52;;;;;;;4.53;3.83;;;11.40;99.90;;;;;;5018271;28;20253;-79
2023/07/26 01:49:20;;;;;;;5.68;4.15;;;11.40;99.90;;;;;;5018287;28;20175;-78
2023/07/26 01:51:46;;;;;;;5.47;3.72;;;11.30;99.90;;;;;;5018494;28;20682;-79
2023/07/26 01:54:12;;;;;;;4.40;3.88;;;11.40;99.90;;;;;;5037144;28;20253;-78
2023/07/26 01:56:38;;;;;;;8.13;4.15;;;11.40;99.90;;;;;;5019157;28;20203;-78
2023/07/26 01:59:04;;;;;;;6.15;3.83;;;11.40;99.90;;;;;;5018800;28;20180;-78
2023/07/26 02:01:29;;;;;;;5.32;4.20;;;11.40;99.90;;;;;;5019089;28;20179;-77
2023/07/26 02:03:55;;;;;;;5.53;3.92;;;11.40;99.90;;;;;;5036894;28;20245;-78
2023/07/26 02:06:21;;;;;;;7.97;3.35;;;11.50;99.90;;;;;;5019185;28;20532;-78
2023/07/26 02:08:46;;;;;;;8.30;3.95;;;11.50;99.90;;;;;;5019877;28;20185;-78
2023/07/26 02:11:12;;;;;;;5.43;3.55;;;11.50;99.90;;;;;;5020080;28;20179;-78
2023/07/26 02:13:38;;;;;;;4.63;3.90;;;11.50;99.90;;;;;;5037099;28;20241;-77
2023/07/26 02:16:04;;;;;;;5.33;3.70;;;11.40;99.90;;;;;;5036871;28;20222;-79
2023/07/26 02:18:30;;;;;;;8.38;3.50;;;11.30;99.90;;;;;;5019496;28;20178;-78
2023/07/26 02:20:55;;;;;;;4.13;3.70;;;11.30;99.90;;;;;;5019948;28;20175;-79
2023/07/26 02:23:21;;;;;;;4.32;3.47;;;11.40;99.90;;;;;;5036990;28;20203;-78
2023/07/26 02:25:47;;;;;;;4.97;3.63;;;11.50;99.90;;;;;;5019184;28;20183;-78
2023/07/26 02:28:13;;;;;;;5.20;3.25;;;11.50;99.90;;;;;;5036604;28;20627;-78
2023/07/26 02:30:39;;;;;;;4.38;3.63;;;11.60;99.90;;;;;;5019524;28;20555;-78
2023/07/26 02:33:05;;;;;;;3.67;3.38;;;11.50;99.90;;;;;;5019207;28;20195;-78
2023/07/26 02:35:31;;;;;;;5.90;3.50;;;11.50;99.90;;;;;;5036672;28;20208;-79
2023/07/26 02:37:56;;;;;;;4.28;3.80;;;11.50;99.90;;;;;;5037387;28;20666;-79
2023/07/26 02:40:22;;;;;;;3.70;3.40;;;11.40;99.90;;;;;;5036943;28;20178;-79
2023/07/26 02:42:48;;;;;;;7.00;3.80;;;11.40;99.90;;;;;;5019793;28;20595;-78
2023/07/26 02:45:14;;;;;;;3.45;3.15;;;11.40;99.90;;;;;;5019427;28;20179;-78
2023/07/26 02:47:40;;;;;;;5.93;3.78;;;11.40;99.90;;;;;;5037807;28;20203;-79
2023/07/26 02:50:06;;;;;;;7.18;3.30;;;11.40;99.90;;;;;;5019129;28;20213;-79
2023/07/26 02:52:32;;;;;;;5.65;3.70;;;11.50;99.90;;;;;;5036791;28;20213;-78
2023/07/26 02:54:58;;;;;;;6.32;3.60;;;11.50;99.90;;;;;;5036267;28;20203;-78
2023/07/26 02:57:24;;;;;;;3.83;3.45;;;11.40;99.90;;;;;;5019254;28;20209;-79
2023/07/26 02:59:50;;;;;;;5.78;3.78;;;11.50;99.90;;;;;;5019375;28;20548;-79
2023/07/26 03:02:15;;;;;;;4.32;3.67;;;11.60;99.90;;;;;;5019824;28;20194;-78
2023/07/26 03:04:41;;;;;;;3.83;3.40;;;11.60;99.90;;;;;;5036758;28;20203;-79
2023/07/26 03:07:07;;;;;;;7.15;3.42;;;11.70;99.90;;;;;;5019561;28;20175;-79
2023/07/26 03:09:33;;;;;;;5.85;3.63;;;11.70;99.90;;;;;;5019973;28;20261;-78
2023/07/26 03:11:59;;;;;;;5.07;3.60;;;11.70;99.90;;;;;;5023179;28;20215;-79
2023/07/26 03:14:24;;;;;;;4.57;3.60;;;11.60;99.90;;;;;;5023498;28;20274;-78
2023/07/26 03:16:50;;;;;;;5.55;4.18;;;11.60;99.90;;;;;;5021961;28;20207;-78
2023/07/26 03:19:16;;;;;;;4.15;3.85;;;11.50;99.90;;;;;;5037795;28;20171;-78
2023/07/26 03:21:41;;;;;;;3.85;3.35;;;11.50;99.90;;;;;;5019713;28;20182;-79
2023/07/26 03:24:07;;;;;;;7.35;3.78;;;11.60;99.90;;;;;;5039509;28;20208;-78
2023/07/26 03:26:33;;;;;;;7.13;4.75;;;11.60;99.90;;;;;;5038422;28;20254;-78
2023/07/26 03:28:59;;;;;;;5.55;3.88;;;11.70;99.90;;;;;;5027204;28;20237;-79
2023/07/26 03:31:24;;;;;;;9.63;5.03;;;11.70;99.90;;;;;;5033466;28;20191;-80
2023/07/26 03:33:50;;;;;;;9.70;5.45;;;11.70;99.90;;;;;;5044567;28;20195;-81
2023/07/26 03:36:16;;;;;;;6.93;5.57;;;11.60;99.90;;;;;;5026647;28;20275;-80
2023/07/26 03:38:42;;;;;;;8.27;5.63;;;11.60;99.90;;;;;;5025922;28;20182;-81
2023/07/26 03:41:08;;;;;;;11.60;6.28;;;11.50;99.90;;;;;;5043844;28;20651;-81
2023/07/26 03:43:33;;;;;;;8.90;5.70;;;11.50;99.90;;;;;;5037499;28;20206;-79
2023/07/26 03:45:59;;;;;;;11.27;5.75;;;11.50;99.90;;;;;;5018938;28;20187;-79
2023/07/26 03:48:25;;;;;;;7.50;5.88;;;11.50;99.90;;;;;;5021116;28;20187;-79
2023/07/26 03:50:51;;;;;;;9.45;5.95;;;11.40;99.90;;;;;;5038516;28;20183;-79
2023/07/26 03:53:16;;;;;;;8.13;6.53;;;11.50;99.90;;;;;;5036066;28;20211;-80
2023/07/26 03:55:42;;;;;;;8.33;6.20;;;11.40;99.90;;;;;;5018011;28;20207;-79
2023/07/26 03:58:08;;;;;;;9.35;5.80;;;11.40;99.90;;;;;;5035597;28;20171;-80
2023/07/26 04:00:34;;;;;;;8.38;5.93;;;11.40;99.90;;;;;;5017958;28;20186;-80
2023/07/26 04:02:59;;;;;;;7.50;6.00;;;11.40;99.90;;;;;;5018303;28;20195;-80
2023/07/26 04:05:25;;;;;;;9.43;6.40;;;11.50;99.90;;;;;;5018045;28;20183;-80
2023/07/26 04:07:51;;;;;;;11.90;7.13;;;11.50;99.90;;;;;;5037101;28;20172;-80
2023/07/26 04:10:17;;;;;;;10.13;6.22;;;11.50;99.90;;;;;;5022260;28;20185;-80
2023/07/26 04:12:43;;;;;;;11.40;6.82;;;11.40;99.90;;;;;;5022748;28;20226;-79
2023/07/26 04:15:10;;;;;;;10.95;6.25;;;11.30;99.90;;;;;;5035657;28;20203;-79
2023/07/26 04:17:36;;;;;;;10.75;6.65;;;11.30;99.90;;;;;;5023168;28;20209;-79
2023/07/26 04:20:02;;;;;;;10.32;7.22;;;11.30;99.90;;;;;;5021934;28;20179;-79
2023/07/26 04:22:28;;;;;;;8.30;6.18;;;11.30;99.90;;;;;;5020968;28;20207;-79
2023/07/26 04:24:53;;;;;;;8.70;6.53;;;11.30;99.90;;;;;;5038638;28;20186;-80
2023/07/26 04:27:19;;;;;;;9.45;6.55;;;11.40;99.90;;;;;;5039371;28;20262;-80
2023/07/26 04:29:45;;;;;;;10.10;6.47;;;11.40;99.90;;;;;;5021880;28;20210;-80
2023/07/26 04:32:11;;;;;;;9.63;6.45;;;11.30;99.90;;;;;;5022117;28;20199;-80
2023/07/26 04:34:36;;;;;;;9.35;6.88;;;11.30;99.90;;;;;;5022567;28;20706;-80
2023/07/26 04:37:02;;;;;;;8.85;6.88;;;11.20;99.90;;;;;;5021333;28;20610;-79
2023/07/26 04:39:28;;;;;;;12.35;7.30;;;11.30;99.90;;;;;;5022102;28;20175;-79
2023/07/26 04:41:54;;;;;;;11.73;7.90;;;11.40;99.90;;;;;;5021291;28;20175;-79
2023/07/26 04:44:19;;;;;;;12.27;7.90;;;11.40;99.90;;;;;;5038594;28;20182;-79
2023/07/26 04:46:45;;;;;;;10.30;7.82;;;11.40;99.90;;;;;;5021428;28;20221;-79
2023/07/26 04:49:11;;;;;;;12.73;8.07;;;11.40;99.90;;;;;;5020581;28;20237;-80
2023/07/26 04:51:37;;;;;;;14.07;7.78;;;11.40;99.90;;;;;;5020233;28;20195;-80
2023/07/26 04:54:05;;;;;;;11.60;8.27;;;11.50;99.90;;;;;;5020750;28;20630;-80
2023/07/26 04:56:31;;;;;;;13.40;9.13;;;11.50;99.90;;;;;;5020869;28;20249;-80
2023/07/26 04:58:57;;;;;;;10.27;8.70;;;11.50;99.90;;;;;;5038373;28;20241;-80
2023/07/26 05:01:23;;;;;;;14.35;8.73;;;11.50;99.90;;;;;;5038262;28;20655;-80
2023/07/26 05:03:49;;;;;;;16.77;9.40;;;11.50;99.90;;;;;;5020240;28;20198;-80
2023/07/26 05:06:15;;;;;;;13.05;9.55;;;11.40;99.90;;;;;;5037967;28;20179;-80
2023/07/26 05:08:41;;;;;;;13.33;10.00;;;11.40;99.90;;;;;;5020490;28;20259;-80
2023/07/26 05:11:06;;;;;;;12.97;10.83;;;11.40;99.90;;;;;;5019844;28;20205;-80
2023/07/26 05:13:32;;;;;;;23.17;11.47;;;11.40;99.90;;;;;;5020323;28;20333;-80
2023/07/26 05:15:58;;;;;;;18.60;12.53;;;11.40;99.90;;;;;;5037557;28;20674;-80
2023/07/26 05:18:24;;;;;;;20.53;11.27;;;11.40;99.90;;;;;;5019478;28;20179;-79
2023/07/26 05:20:50;;;;;;;16.33;11.13;;;11.40;99.90;;;;;;5038592;28;20182;-78
2023/07/26 05:23:17;;;;;;;20.35;11.70;;;11.50;99.90;;;;;;5019310;28;20297;-80
2023/07/26 05:25:43;;;;;;;16.40;11.68;;;11.60;99.90;;;;;;5020251;28;20554;-80
2023/07/26 05:28:09;;;;;;;16.45;11.48;;;11.60;99.90;;;;;;5019471;28;20655;-80
2023/07/26 05:30:39;;;;;;;19.40;12.43;;;11.70;99.90;;;;;;5019011;28;20183;-80
2023/07/26 05:33:06;;;;;;;18.42;12.20;;;11.70;99.90;;;;;;5019542;28;20276;-80
2023/07/26 05:35:32;;;;;;;18.98;12.95;;;11.90;99.90;;;;;;5019604;28;20187;-80
2023/07/26 05:37:58;;;;;;;18.47;12.07;;;11.90;99.90;;;;;;5017766;28;20769;-80
2023/07/26 05:40:24;;;;;;;17.60;12.82;;;11.90;99.90;;;;;;5017714;28;20258;-80
2023/07/26 05:42:50;;;;;;;22.42;13.27;;;11.90;99.90;;;;;;5017611;28;20202;-80
2023/07/26 05:45:16;;;;;;;17.13;11.88;;;12.00;99.90;;;;;;5017365;28;20656;-80
2023/07/26 05:47:43;;;;;;;19.00;12.70;;;12.00;99.90;;;;;;5018062;28;20233;-80
2023/07/26 05:50:10;;;;;;;18.20;11.60;;;12.00;99.90;;;;;;5034629;28;20186;-80
2023/07/26 05:52:37;;;;;;;16.65;11.32;;;12.00;99.90;;;;;;5017366;28;20203;-80
2023/07/26 05:55:03;;;;;;;15.82;11.57;;;11.90;99.90;;;;;;5017781;28;20206;-80
2023/07/26 05:57:29;;;;;;;17.17;12.18;;;12.00;99.90;;;;;;5035367;28;20252;-80
2023/07/26 05:59:55;;;;;;;17.52;11.95;;;12.10;99.90;;;;;;5035583;28;20175;-80
2023/07/26 06:02:21;;;;;;;18.58;11.90;;;12.20;99.90;;;;;;5017523;28;20237;-80
2023/07/26 06:04:47;;;;;;;18.02;12.95;;;12.20;99.90;;;;;;5017787;28;20179;-80
2023/07/26 06:07:14;;;;;;;16.65;12.35;;;12.20;99.90;;;;;;5017329;28;20674;-80
2023/07/26 06:09:40;;;;;;;12.73;10.75;;;12.20;99.90;;;;;;5017718;28;20314;-80
2023/07/26 06:12:06;;;;;;;17.90;11.98;;;12.30;99.90;;;;;;5035364;28;20627;-80
2023/07/26 06:14:31;;;;;;;14.15;10.40;;;12.30;99.90;;;;;;5035699;28;20180;-80
2023/07/26 06:16:58;;;;;;;15.20;10.65;;;12.40;99.90;;;;;;5036103;28;20230;-80
2023/07/26 06:19:24;;;;;;;20.10;11.40;;;12.40;99.90;;;;;;5018105;28;20183;-80
2023/07/26 06:21:55;;;;;;;14.30;10.98;;;12.40;99.90;;;;;;5035496;28;20214;-79
2023/07/26 06:24:29;;;;;;;15.90;10.10;;;12.50;99.90;;;;;;5036383;28;20155;-79
2023/07/26 06:26:55;;;;;;;14.07;9.27;;;12.60;99.90;;;;;;5019113;28;20178;-80
2023/07/26 06:29:21;;;;;;;12.27;9.75;;;12.70;99.90;;;;;;5037554;28;20197;-80
2023/07/26 06:31:48;;;;;;;12.07;9.73;;;12.80;99.90;;;;;;5035685;28;20253;-80
2023/07/26 06:34:14;;;;;;;11.93;9.25;;;12.80;99.90;;;;;;5017946;28;20183;-80
2023/07/26 06:36:39;;;;;;;11.75;9.13;;;13.00;99.90;;;;;;5016968;28;20759;-79
2023/07/26 06:39:05;;;;;;;12.02;9.23;;;13.10;99.90;;;;;;5017287;28;20183;-79
2023/07/26 06:41:31;;;;;;;10.60;8.10;;;13.20;99.90;;;;;;5035065;28;20167;-79
2023/07/26 06:43:57;;;;;;;8.50;7.50;;;13.20;99.90;;;;;;5018527;28;20247;-79
2023/07/26 06:46:22;;;;;;;10.32;7.32;;;13.20;99.90;;;;;;5018896;28;20175;-79
2023/07/26 06:48:48;;;;;;;10.23;7.72;;;13.20;99.90;;;;;;5019001;28;20215;-79
2023/07/26 06:51:14;;;;;;;10.38;6.95;;;13.20;99.90;;;;;;5018785;28;20224;-80
2023/07/26 06:53:40;;;;;;;10.52;7.10;;;13.20;99.90;;;;;;5036914;28;20667;-79
2023/07/26 06:56:05;;;;;;;8.43;6.88;;;13.20;99.90;;;;;;5019630;28;20697;-79
2023/07/26 06:58:31;;;;;;;7.57;6.43;;;13.20;99.90;;;;;;5019562;28;20186;-79
2023/07/26 07:00:58;;;;;;;9.13;6.38;;;13.20;99.90;;;;;;5017021;28;20257;-79
2023/07/26 07:03:24;;;;;;;8.57;6.47;;;13.30;99.90;;;;;;5016542;28;20256;-79
2023/07/26 07:05:50;;;;;;;8.25;7.22;;;13.30;99.90;;;;;;5016696;28;20179;-78
2023/07/26 07:08:16;;;;;;;9.10;6.28;;;13.30;99.90;;;;;;5016425;28;20520;-78
2023/07/26 07:10:41;;;;;;;7.68;6.40;;;13.40;99.90;;;;;;5016441;28;20190;-79
2023/07/26 07:13:07;;;;;;;8.82;6.57;;;13.60;99.90;;;;;;5016102;28;20226;-79
2023/07/26 07:15:33;;;;;;;7.65;6.80;;;13.80;99.90;;;;;;5016086;28;20237;-79
2023/07/26 07:17:58;;;;;;;9.05;6.65;;;14.00;99.90;;;;;;5016359;28;20570;-79
2023/07/26 07:20:24;;;;;;;7.35;6.60;;;14.20;99.90;;;;;;5015875;28;20528;-78
2023/07/26 07:22:53;;;;;;;8.65;6.82;;;14.30;99.90;;;;;;5033607;28;20187;-78
2023/07/26 07:25:19;;;;;;;10.35;6.72;;;14.30;99.90;;;;;;5033799;28;20167;-78
2023/07/26 07:27:44;;;;;;;9.45;7.57;;;14.30;99.90;;;;;;5016370;28;20175;-78
2023/07/26 07:30:11;;;;;;;7.45;6.38;;;14.20;99.90;;;;;;5016256;28;20190;-78
2023/07/26 07:32:37;;;;;;;10.10;6.65;;;14.30;99.90;;;;;;5033967;28;20201;-79
2023/07/26 07:35:05;;;;;;;9.27;6.05;;;14.30;99.90;;;;;;5016205;28;20693;-79
2023/07/26 07:37:30;;;;;;;9.20;6.93;;;14.40;99.90;;;;;;5015883;28;20633;-78
2023/07/26 07:39:56;;;;;;;10.93;7.13;;;14.50;99.90;;;;;;5034256;28;20172;-78
2023/07/26 07:42:22;;;;;;;9.25;6.90;;;14.60;99.90;;;;;;5035998;28;20198;-78
2023/07/26 07:44:47;;;;;;;12.63;7.15;;;14.70;99.90;;;;;;5037883;28;20171;-78
2023/07/26 07:47:13;;;;;;;11.23;7.15;;;14.70;99.90;;;;;;5020484;28;20670;-78
2023/07/26 07:49:39;;;;;;;7.95;6.82;;;14.70;99.90;;;;;;5020399;28;20329;-77
2023/07/26 07:52:05;;;;;;;10.13;6.78;;;14.80;99.90;;;;;;5019651;28;20210;-78
2023/07/26 07:54:31;;;;;;;8.82;6.72;;;14.80;99.90;;;;;;5019856;28;20183;-78
2023/07/26 07:56:56;;;;;;;10.88;6.90;;;14.80;99.90;;;;;;5038106;28;20660;-78
2023/07/26 07:59:22;;;;;;;9.70;7.40;;;14.90;99.90;;;;;;5019993;28;20190;-78
2023/07/26 08:01:48;;;;;;;9.38;6.57;;;15.00;99.90;;;;;;5037721;28;20176;-78
2023/07/26 08:04:14;;;;;;;10.07;7.15;;;15.10;99.90;;;;;;5019800;28;20174;-78
2023/07/26 08:06:39;;;;;;;10.02;7.57;;;15.20;99.90;;;;;;5037292;28;20179;-77
2023/07/26 08:09:05;;;;;;;10.00;7.50;;;15.20;99.90;;;;;;5019805;28;20183;-78
2023/07/26 08:11:31;;;;;;;10.40;7.30;;;15.30;99.90;;;;;;5019546;28;20187;-78
2023/07/26 08:13:57;;;;;;;10.52;8.45;;;15.40;99.90;;;;;;5019419;28;20210;-77
2023/07/26 08:16:22;;;;;;;15.32;9.25;;;15.60;99.90;;;;;;5019629;28;20207;-77
2023/07/26 08:18:48;;;;;;;12.35;8.35;;;15.70;99.90;;;;;;5019640;28;20665;-77
2023/07/26 08:21:14;;;;;;;14.48;8.02;;;15.90;99.90;;;;;;5019134;28;20233;-77
2023/07/26 08:23:39;;;;;;;10.00;7.35;;;16.00;99.90;;;;;;5019512;28;20199;-77
2023/07/26 08:26:09;;;;;;;8.65;6.85;;;16.20;99.90;;;;;;5019722;28;20183;-78
2023/07/26 08:28:35;;;;;;;11.98;6.85;;;16.20;99.90;;;;;;5019552;28;20669;-78
2023/07/26 08:31:01;;;;;;;7.28;6.57;;;16.30;99.90;;;;;;5019479;28;20183;-78
2023/07/26 08:33:27;;;;;;;10.60;6.60;;;16.30;99.90;;;;;;5037309;28;20205;-78
2023/07/26 08:35:55;;;;;;;8.10;6.45;;;16.40;99.90;;;;;;5019102;28;20207;-78
2023/07/26 08:38:22;;;;;;;9.93;6.78;;;16.70;99.90;;;;;;5019546;28;20183;-78
2023/07/26 08:40:49;;;;;;;9.05;6.90;;;17.10;99.90;;;;;;5019348;28;20186;-78
2023/07/26 08:43:18;;;;;;;8.35;5.95;;;17.20;99.90;;;;;;5018967;28;20227;-78
2023/07/26 08:45:45;;;;;;;8.95;6.13;;;17.20;99.90;;;;;;5018912;28;20648;-77
2023/07/26 08:48:11;;;;;;;10.20;5.90;;;17.00;92.90;;;;;;5019127;28;20186;-78
2023/07/26 08:50:40;;;;;;;8.55;6.22;;;16.90;99.90;;;;;;5036767;28;20183;-77
2023/07/26 08:53:07;;;;;;;8.07;6.28;;;17.00;99.90;;;;;;5035520;28;20195;-78
2023/07/26 08:55:33;;;;;;;9.88;6.68;;;17.10;99.90;;;;;;5037208;28;20310;-77
2023/07/26 08:57:59;;;;;;;8.10;5.80;;;17.30;99.90;;;;;;5036632;28;20175;-78
2023/07/26 09:00:26;;;;;;;6.68;5.43;;;17.30;99.90;;;;;;5036822;28;20183;-78
2023/07/26 09:02:55;;;;;;;6.68;5.95;;;17.50;99.90;;;;;;5018939;28;20210;-77
2023/07/26 09:05:21;;;;;;;7.88;4.43;;;17.90;99.90;;;;;;5019187;28;20186;-78
2023/07/26 09:07:51;;;;;;;8.38;4.43;;;18.40;72.80;;;;;;5036670;28;20628;-78
2023/07/26 09:10:22;;;;;;;7.30;4.47;;;18.60;1.00;;;;;;5037188;28;20163;-78
2023/07/26 09:12:50;;;;;;;7.72;4.13;;;18.90;1.00;;;;;;5018441;28;20580;-78
2023/07/26 09:15:18;;;;;;;6.57;4.13;;;18.70;1.00;;;;;;5018886;28;20186;-78
2023/07/26 09:17:44;;;;;;;8.73;5.00;;;19.30;1.00;;;;;;5018923;28;20203;-79
2023/07/26 09:20:28;;;;;;;5.18;4.57;;;19.40;99.90;;;;;;5018494;28;20221;-78
2023/07/26 09:23:16;;;;;;;8.07;4.95;;;19.20;1.00;;;;;;5017919;28;20226;-77
2023/07/26 09:25:43;;;;;;;6.30;5.00;;;19.10;1.00;;;;;;5018614;28;20705;-78
2023/07/26 09:28:12;;;;;;;7.35;4.75;;;18.70;1.00;;;;;;5018551;28;20175;-78
2023/07/26 09:30:39;;;;;;;7.30;4.97;;;18.70;1.00;;;;;;5018476;28;20183;-78
2023/07/26 09:33:07;;;;;;;7.38;4.70;;;19.20;99.90;;;;;;5018761;28;20199;-78
2023/07/26 09:35:43;;;;;;;6.85;5.15;;;19.60;1.00;;;;;;5018892;28;20199;-79
2023/07/26 09:38:13;;;;;;;7.50;4.90;;;19.30;99.90;;;;;;5018642;28;20635;-79
2023/07/26 09:40:39;;;;;;;5.18;4.00;;;18.80;99.90;;;;;;5018696;28;20270;-78
2023/07/26 09:43:05;;;;;;;7.40;4.45;;;18.50;1.00;;;;;;5036297;28;20245;-79
2023/07/26 09:45:31;;;;;;;6.57;5.35;;;18.50;99.90;;;;;;5018625;28;20639;-78
2023/07/26 09:48:09;;;;;;;6.82;4.80;;;18.70;1.00;;;;;;5036170;28;20176;-78
2023/07/26 09:50:35;;;;;;;6.35;4.57;;;19.30;1.00;;;;;;5018758;28;20566;-78
2023/07/26 09:53:04;;;;;;;7.93;5.20;;;19.70;99.90;;;;;;5035895;28;20596;-78
2023/07/26 09:55:31;;;;;;;5.70;4.88;;;20.20;99.90;;;;;;5018241;28;20179;-77
2023/07/26 09:57:57;;;;;;;6.22;4.97;;;20.70;99.90;;;;;;5036193;28;20282;-77
2023/07/26 10:00:26;;;;;;;6.30;5.22;;;20.50;99.90;;;;;;5018619;28;20183;-77
2023/07/26 10:03:06;;;;;;;4.72;4.22;;;20.20;1.00;;;;;;5036047;28;20199;-78
2023/07/26 10:05:52;;;;;;;7.00;4.80;;;19.90;99.90;;;;;;5017982;28;20266;-78
2023/07/26 10:08:19;;;;;;;9.68;5.50;;;19.50;99.90;;;;;;5036659;28;20527;-78
2023/07/26 10:10:47;;;;;;;5.78;5.18;;;19.10;99.90;;;;;;5037254;28;20199;-78
2023/07/26 10:13:15;;;;;;;6.78;5.78;;;18.70;1.00;;;;;;5037953;28;20619;-78
2023/07/26 10:15:46;;;;;;;6.65;5.68;;;18.40;1.00;;;;;;5019908;28;20179;-79
2023/07/26 10:18:15;;;;;;;6.47;5.70;;;17.20;30.80;;;;;;5037182;28;20367;-80
2023/07/26 10:20:43;;;;;;;6.43;5.57;;;15.90;99.90;;;;;;5018513;28;20194;-78
2023/07/26 10:23:10;;;;;;;13.52;9.02;;;14.90;99.90;;;;;;5018307;28;20199;-79
2023/07/26 10:25:38;;;;;;;4.72;4.25;;;14.30;99.90;;;;;;5018802;28;20704;-79
2023/07/26 10:28:04;;;;;;;5.00;4.15;;;13.60;99.90;;;;;;5036984;28;20171;-78
2023/07/26 10:30:31;;;;;;;14.80;7.78;;;13.20;99.90;;;;;;5018499;28;20175;-79
2023/07/26 10:32:59;;;;;;;16.70;7.47;;;13.00;99.90;;;;;;5017260;28;20686;-79
2023/07/26 10:35:28;;;;;;;5.65;4.53;;;12.90;99.90;;;;;;5017392;28;20240;-79
2023/07/26 10:37:58;;;;;;;7.93;4.35;;;12.70;99.90;;;;;;5034633;28;20206;-80
2023/07/26 10:40:38;;;;;;;6.50;4.07;;;12.70;99.90;;;;;;5017778;28;20167;-80
2023/07/26 10:43:20;;;;;;;6.95;4.35;;;12.60;99.90;;;;;;5017253;28;20679;-81
2023/07/26 10:45:47;;;;;;;4.78;4.28;;;12.50;99.90;;;;;;5017978;28;20179;-81
2023/07/26 10:48:23;;;;;;;6.75;4.30;;;12.40;99.90;;;;;;5017328;28;20171;-81
2023/07/26 10:50:49;;;;;;;5.45;4.13;;;12.40;99.90;;;;;;5035628;28;20262;-81
2023/07/26 10:53:36;;;;;;;5.50;4.55;;;12.40;99.90;;;;;;5036920;28;20248;-82
2023/07/26 10:56:17;;;;;;;9.48;5.78;;;12.40;99.90;;;;;;5020893;28;20205;-83
2023/07/26 10:58:54;;;;;;;5.18;4.68;;;12.50;99.90;;;;;;5019812;28;20168;-83
2023/07/26 11:01:31;;;;;;;6.10;5.15;;;12.50;99.90;;;;;;5019008;28;20182;-83
2023/07/26 11:03:59;;;;;;;6.93;4.97;;;12.60;99.90;;;;;;5036658;28;20202;-83
2023/07/26 11:06:54;;;;;;;7.60;5.60;;;12.60;99.90;;;;;;5019032;28;20190;-82
2023/07/26 11:09:27;;;;;;;7.05;4.80;;;12.60;99.90;;;;;;5016662;28;20183;-83
2023/07/26 11:11:52;;;;;;;6.00;4.68;;;12.70;99.90;;;;;;5019168;28;20191;-82
2023/07/26 11:14:18;;;;;;;6.75;5.00;;;12.80;99.90;;;;;;5018510;28;20182;-82
2023/07/26 11:16:44;;;;;;;7.38;5.40;;;12.80;99.90;;;;;;5018419;28;20207;-82
2023/07/26 11:19:10;;;;;;;7.22;5.60;;;13.00;99.90;;;;;;5019112;28;20179;-82
2023/07/26 11:21:35;;;;;;;7.82;6.65;;;13.30;99.90;;;;;;5036020;28;20188;-82
2023/07/26 11:24:02;;;;;;;12.52;5.97;;;13.70;99.90;;;;;;5036060;28;20198;-82
2023/07/26 11:26:27;;;;;;;8.75;5.28;;;14.20;99.90;;;;;;5018751;28;20206;-82
2023/07/26 11:28:57;;;;;;;5.97;4.68;;;14.60;99.90;;;;;;5018641;28;20186;-83
2023/07/26 11:31:23;;;;;;;6.25;4.25;;;15.00;99.90;;;;;;5036133;28;20539;-82
2023/07/26 11:33:51;;;;;;;4.82;4.10;;;15.10;99.90;;;;;;5018388;28;20230;-81
2023/07/26 11:36:20;;;;;;;5.47;3.80;;;15.20;99.90;;;;;;5018057;28;20207;-81
2023/07/26 11:38:46;;;;;;;6.25;4.20;;;15.20;99.90;;;;;;5017736;28;20182;-81
2023/07/26 11:41:19;;;;;;;4.32;3.90;;;15.30;99.90;;;;;;5017976;28;20179;-81
2023/07/26 11:43:45;;;;;;;4.22;3.83;;;15.40;99.90;;;;;;5017672;28;20217;-80
2023/07/26 11:46:11;;;;;;;4.30;3.90;;;15.50;99.90;;;;;;5035956;28;20177;-81
2023/07/26 11:48:43;;;;;;;4.18;3.78;;;15.80;99.90;;;;;;5018274;28;20266;-80
2023/07/26 11:51:09;;;;;;;4.72;3.80;;;16.00;99.90;;;;;;5018465;28;20661;-80
2023/07/26 11:53:41;;;;;;;5.05;4.05;;;16.40;99.90;;;;;;5017854;28;20206;-80
2023/07/26 11:56:07;;;;;;;4.30;3.90;;;16.60;99.90;;;;;;5017991;28;20192;-80
2023/07/26 11:58:36;;;;;;;5.65;4.45;;;16.60;99.90;;;;;;5018481;28;20546;-81
2023/07/26 12:01:03;;;;;;;4.25;3.45;;;16.90;99.90;;;;;;5018272;28;20203;-80
2023/07/26 12:03:30;;;;;;;5.13;4.03;;;16.90;99.90;;;;;;5017670;28;20261;-80
2023/07/26 12:05:56;;;;;;;4.22;3.65;;;17.00;99.90;;;;;;5018520;28;20172;-80
2023/07/26 12:08:22;;;;;;;6.70;3.95;;;17.20;99.90;;;;;;5017974;28;20183;-80
2023/07/26 12:10:48;;;;;;;5.82;3.75;;;17.10;99.90;;;;;;5018561;28;20236;-80
2023/07/26 12:13:22;;;;;;;6.28;4.32;;;17.20;99.90;;;;;;5018187;28;20245;-80
2023/07/26 12:15:51;;;;;;;5.68;4.28;;;17.50;99.90;;;;;;5036086;28;20167;-80
2023/07/26 12:18:18;;;;;;;6.07;5.13;;;17.70;99.90;;;;;;5018670;28;20179;-80
2023/07/26 12:21:04;;;;;;;6.20;4.57;;;17.90;99.90;;;;;;5017852;28;20330;-80
2023/07/26 12:23:54;;;;;;;5.22;4.00;;;18.10;99.90;;;;;;5016341;28;20231;-80
2023/07/26 12:26:25;;;;;;;5.72;4.90;;;18.20;99.90;;;;;;5016550;28;20187;-80
2023/07/26 12:28:53;;;;;;;6.25;4.88;;;18.40;99.90;;;;;;5017611;28;20264;-80
2023/07/26 12:31:22;;;;;;;6.35;4.50;;;18.60;99.90;;;;;;5019965;28;20550;-80
2023/07/26 12:33:55;;;;;;;6.43;4.85;;;18.70;99.90;;;;;;5019722;28;20203;-79
2023/07/26 12:36:22;;;;;;;4.75;4.15;;;18.80;99.90;;;;;;5020263;28;20737;-79
2023/07/26 12:38:48;;;;;;;6.05;4.65;;;19.00;99.90;;;;;;5019551;28;20179;-79
2023/07/26 12:41:14;;;;;;;8.63;5.10;;;19.20;99.90;;;;;;5019819;28;20633;-80
2023/07/26 12:43:40;;;;;;;6.43;4.82;;;19.30;84.20;;;;;;5020434;28;20231;-79